createdAt,value
2017-08-27T00:03:24.960Z,20.23
2017-08-27T00:08:26.797Z,22.47
2017-08-27T00:13:28.440Z,22.90
2017-08-27T00:18:30.100Z,24.40
2017-08-27T00:23:31.997Z,20.27
2017-08-27T00:28:33.652Z,22.20
2017-08-27T00:33:35.337Z,22.77
2017-08-27T00:38:37.141Z,24.83
2017-08-27T00:43:38.915Z,20.83
2017-08-27T00:48:40.713Z,24.70
2017-08-27T00:53:42.363Z,27.83
2017-08-27T00:58:44.035Z,23.70
2017-08-27T01:03:45.914Z,25.57
2017-08-27T01:08:48.405Z,22.60
2017-08-27T01:13:50.048Z,27.03
2017-08-27T01:18:51.801Z,21.50
2017-08-27T01:23:53.701Z,27.03
2017-08-27T01:28:56.025Z,26.10
2017-08-27T01:33:57.636Z,22.87
2017-08-27T01:38:59.363Z,24.60
2017-08-27T01:44:01.034Z,30.10
2017-08-27T01:49:02.707Z,26.03
2017-08-27T01:54:05.477Z,22.17
2017-08-27T01:59:07.300Z,27.47
2017-08-27T02:04:08.955Z,24.27
2017-08-27T02:09:11.155Z,27.57
2017-08-27T02:14:12.758Z,31.00
2017-08-27T02:19:14.586Z,29.23
2017-08-27T02:24:16.335Z,25.43
2017-08-27T02:29:18.034Z,26.63
2017-08-27T02:34:22.425Z,31.67
2017-08-27T02:39:39.032Z,26.23
2017-08-27T02:44:55.411Z,27.37
2017-08-27T02:50:12.484Z,27.80
2017-08-27T02:55:29.014Z,26.17
2017-08-27T03:00:45.453Z,28.93
2017-08-27T03:06:02.171Z,25.53
2017-08-27T03:11:18.697Z,28.13
2017-08-27T03:16:21.535Z,33.70
2017-08-27T03:21:34.733Z,27.80
2017-08-27T03:26:36.552Z,29.10
2017-08-27T03:31:38.197Z,33.87
2017-08-27T03:36:40.201Z,37.57
2017-08-27T03:41:41.979Z,28.97
2017-08-27T03:46:43.649Z,33.80
2017-08-27T03:51:45.997Z,36.23
2017-08-27T03:56:48.736Z,37.60
2017-08-27T04:01:50.332Z,33.93
2017-08-27T04:06:52.082Z,31.00
2017-08-27T04:11:53.696Z,37.40
2017-08-27T04:16:55.323Z,37.20
2017-08-27T04:21:56.996Z,30.40
2017-08-27T04:26:59.772Z,30.13
2017-08-27T04:32:01.467Z,31.50
2017-08-27T04:37:03.316Z,30.17
2017-08-27T04:42:05.120Z,39.20
2017-08-27T04:47:06.770Z,45.77
2017-08-27T04:52:08.542Z,35.53
2017-08-27T04:57:10.189Z,38.73
2017-08-27T05:02:12.834Z,36.97
2017-08-27T05:07:14.564Z,41.47
2017-08-27T05:12:16.253Z,38.43
2017-08-27T05:17:18.057Z,42.30
2017-08-27T05:22:20.726Z,37.63
2017-08-27T05:27:23.192Z,35.90
2017-08-27T05:32:25.477Z,40.93
2017-08-27T05:37:27.488Z,27.90
2017-08-27T05:42:29.132Z,37.50
2017-08-27T05:47:30.859Z,38.23
2017-08-27T05:52:32.842Z,38.13
2017-08-27T05:57:34.509Z,35.50
2017-08-27T06:02:40.150Z,37.50
2017-08-27T06:07:42.873Z,42.63
2017-08-27T06:12:44.525Z,43.30
2017-08-27T06:17:46.299Z,45.13
2017-08-27T06:22:48.602Z,38.10
2017-08-27T06:27:50.587Z,40.10
2017-08-27T06:32:53.284Z,44.10
2017-08-27T06:37:54.925Z,51.13
2017-08-27T06:42:56.732Z,44.80
2017-08-27T06:47:58.387Z,51.73
2017-08-27T06:53:00.180Z,47.43
2017-08-27T06:58:01.825Z,49.73
2017-08-27T07:03:03.525Z,45.93
2017-08-27T07:08:05.300Z,50.70
2017-08-27T07:13:06.971Z,64.80
2017-08-27T07:18:08.645Z,50.60
2017-08-27T07:23:10.285Z,57.47
2017-08-27T07:28:12.041Z,53.57
2017-08-27T07:33:13.705Z,56.53
2017-08-27T07:38:15.437Z,48.70
2017-08-27T07:43:18.108Z,53.47
2017-08-27T07:48:19.809Z,58.07
2017-08-27T07:53:21.458Z,49.20
2017-08-27T07:58:25.177Z,57.17
2017-08-27T08:03:27.943Z,50.87
2017-08-27T08:08:29.618Z,49.63
2017-08-27T08:13:32.182Z,50.57
2017-08-27T08:18:34.861Z,47.77
2017-08-27T08:23:37.257Z,48.80
2017-08-27T08:28:38.869Z,46.17
2017-08-27T08:33:40.671Z,46.20
2017-08-27T08:38:42.413Z,46.10
2017-08-27T08:43:44.145Z,42.13
2017-08-27T08:48:45.864Z,39.13
2017-08-27T08:53:52.587Z,41.37
2017-08-27T09:08:25.832Z,38.23
2017-08-27T09:13:27.609Z,36.43
2017-08-27T09:18:29.279Z,35.97
2017-08-27T09:23:30.981Z,30.10
2017-08-27T09:28:32.612Z,28.50
2017-08-27T09:33:34.297Z,26.30
2017-08-27T09:38:35.957Z,35.03
2017-08-27T09:43:37.664Z,26.80
2017-08-27T10:45:37.509Z,17.10
2017-08-27T10:50:39.263Z,15.17
2017-08-27T10:55:40.986Z,15.67
2017-08-27T11:00:42.735Z,20.13
2017-08-27T11:05:44.510Z,16.17
2017-08-27T11:10:46.157Z,21.67
2017-08-27T11:15:47.949Z,18.17
2017-08-27T11:20:53.846Z,15.50
2017-08-27T11:25:55.607Z,18.70
2017-08-27T11:30:57.328Z,16.90
2017-08-27T11:35:59.042Z,26.00
2017-08-27T11:41:00.829Z,21.57
2017-08-27T11:46:02.460Z,17.37
2017-08-27T11:51:04.582Z,18.60
2017-08-27T11:56:06.608Z,17.23
2017-08-27T12:01:08.285Z,17.17
2017-08-27T12:06:10.064Z,23.80
2017-08-27T12:11:11.733Z,21.03
2017-08-27T12:16:13.493Z,19.03
2017-08-27T12:21:15.201Z,20.17
2017-08-27T12:26:18.334Z,17.07
2017-08-27T12:31:19.969Z,17.80
2017-08-27T12:36:22.333Z,23.30
2017-08-27T12:41:23.911Z,17.50
2017-08-27T12:46:25.613Z,16.70
2017-08-27T12:51:27.295Z,18.00
2017-08-27T12:56:28.933Z,23.30
2017-08-27T13:01:30.613Z,16.40
2017-08-27T13:06:33.304Z,22.13
2017-08-27T13:11:35.076Z,19.63
2017-08-27T13:16:36.856Z,22.20
2017-08-27T13:21:38.629Z,16.97
2017-08-27T13:26:40.332Z,17.63
2017-08-27T13:31:41.976Z,15.53
2017-08-27T13:36:43.757Z,16.20
2017-08-27T13:41:45.528Z,19.50
2017-08-27T13:46:47.336Z,14.90
2017-08-27T13:51:48.981Z,17.73
2017-08-27T13:56:50.776Z,16.17
2017-08-27T14:01:52.441Z,15.83
2017-08-27T14:06:54.094Z,15.83
2017-08-27T14:11:55.869Z,15.80
2017-08-27T14:16:57.603Z,18.37
2017-08-27T14:21:59.320Z,16.83
2017-08-27T14:27:01.076Z,19.67
2017-08-27T14:32:02.662Z,18.40
2017-08-27T14:37:04.438Z,16.73
2017-08-27T14:42:06.100Z,18.77
2017-08-27T14:47:07.773Z,16.77
2017-08-27T14:52:09.341Z,14.67
2017-08-27T14:57:11.016Z,16.73
2017-08-27T15:02:12.688Z,19.83
2017-08-27T15:07:14.272Z,24.10
2017-08-27T15:12:15.933Z,17.03
2017-08-27T15:17:17.666Z,16.30
2017-08-27T15:22:19.376Z,16.60
2017-08-27T15:27:21.096Z,16.20
2017-08-27T15:32:22.730Z,15.10
2017-08-27T15:37:24.422Z,15.63
2017-08-27T15:42:26.069Z,16.10
2017-08-27T15:47:27.754Z,17.37
2017-08-27T15:52:29.513Z,24.73
2017-08-27T15:57:31.180Z,18.33
2017-08-27T16:02:32.978Z,18.23
2017-08-27T16:07:34.650Z,18.17
2017-08-27T16:12:36.322Z,19.23
2017-08-27T16:17:38.122Z,21.93
2017-08-27T16:22:39.806Z,18.83
2017-08-27T16:27:41.477Z,16.77
2017-08-27T16:32:43.145Z,17.90
2017-08-27T16:37:44.919Z,16.23
2017-08-27T16:42:46.605Z,20.97
2017-08-27T16:47:48.276Z,21.77
2017-08-27T16:52:50.045Z,17.23
2017-08-27T16:57:52.717Z,20.60
2017-08-27T17:02:54.497Z,16.83
2017-08-27T17:07:56.166Z,17.37
2017-08-27T17:12:57.862Z,18.70
2017-08-27T17:17:59.633Z,19.50
2017-08-27T17:23:01.342Z,17.23
2017-08-27T17:28:02.992Z,17.27
2017-08-27T17:33:04.657Z,19.53
2017-08-27T17:38:06.338Z,22.30
2017-08-27T17:43:07.998Z,24.13
2017-08-27T17:48:09.668Z,17.47
2017-08-27T17:53:11.353Z,19.17
2017-08-27T17:58:13.012Z,17.73
2017-08-27T18:03:14.693Z,20.83
2017-08-27T18:08:16.372Z,18.73
2017-08-27T18:13:18.036Z,26.73
2017-08-27T18:18:19.730Z,23.83
2017-08-27T18:23:21.357Z,24.70
2017-08-27T18:28:23.105Z,21.90
2017-08-27T18:33:24.823Z,21.63
2017-08-27T18:38:26.565Z,23.67
2017-08-27T18:43:28.181Z,24.20
2017-08-27T18:48:29.815Z,25.20
2017-08-27T18:53:31.477Z,24.53
2017-08-27T18:58:33.158Z,24.63
2017-08-27T19:03:34.994Z,28.47
2017-08-27T19:08:36.737Z,25.30
2017-08-27T19:13:38.374Z,26.17
2017-08-27T19:18:40.207Z,24.40
2017-08-27T19:23:43.671Z,24.00
2017-08-27T19:28:45.357Z,31.70
2017-08-27T19:33:47.116Z,24.73
2017-08-27T19:38:48.849Z,32.73
2017-08-27T19:43:50.485Z,26.57
2017-08-27T19:48:52.244Z,24.77
2017-08-27T19:53:53.909Z,24.27
2017-08-27T19:58:55.710Z,27.17
2017-08-27T20:03:57.482Z,22.50
2017-08-27T20:08:59.336Z,30.07
2017-08-27T20:14:01.140Z,25.80
2017-08-27T20:19:02.783Z,24.73
2017-08-27T20:24:04.505Z,25.40
2017-08-27T20:29:06.143Z,33.23
2017-08-27T20:34:07.938Z,27.23
2017-08-27T20:39:09.710Z,26.60
2017-08-27T20:44:11.350Z,28.10
2017-08-27T20:49:13.950Z,31.57
2017-08-27T20:54:15.551Z,29.13
2017-08-27T20:59:18.214Z,28.37
2017-08-27T21:04:19.894Z,32.73
2017-08-27T21:09:21.509Z,27.93
2017-08-27T21:14:23.241Z,26.77
2017-08-27T21:19:24.856Z,26.60
2017-08-27T21:24:26.482Z,27.27
2017-08-27T21:29:28.148Z,27.87
2017-08-27T21:34:29.938Z,31.70
2017-08-27T21:39:31.618Z,34.60
2017-08-27T21:44:33.265Z,31.43
2017-08-27T21:49:34.832Z,30.97
2017-08-27T21:54:36.508Z,35.90
2017-08-27T21:59:38.181Z,36.27
2017-08-27T22:04:39.863Z,35.60
2017-08-27T22:09:41.535Z,35.10
2017-08-27T22:14:43.213Z,30.90
2017-08-27T22:19:44.880Z,33.03
2017-08-27T22:24:47.049Z,34.10
2017-08-27T22:29:48.737Z,43.83
2017-08-27T22:34:50.406Z,34.60
2017-08-27T22:39:52.181Z,33.33
2017-08-27T22:44:53.866Z,32.90
2017-08-27T22:49:55.642Z,36.40
2017-08-27T22:54:57.314Z,42.30
2017-08-27T22:59:59.124Z,33.47
2017-08-27T23:05:00.852Z,32.10
2017-08-27T23:10:03.549Z,37.77
2017-08-27T23:15:05.230Z,42.00
2017-08-27T23:20:06.894Z,34.10
2017-08-27T23:25:08.577Z,39.50
2017-08-27T23:30:10.381Z,39.10
2017-08-27T23:35:12.180Z,39.27
2017-08-27T23:40:14.714Z,40.80
2017-08-27T23:45:16.502Z,47.47
2017-08-27T23:50:18.222Z,42.87
2017-08-27T23:55:20.889Z,41.70
